• Join FlightAware (Why Join?)
  • Login
  • US Flag 
06:58PM EST


 

Airport Tracker/Info


-or-


 

Live Flight TrackerFlight Track Log ✈ SKW6492 ✈ 01-Sep-2013 ✈ KDEN - KCOD

Flight Track Log - Related Links

Times and Time Zones

All times are in EDT time to prevent confusion due to time zone crossing. See the SKW6492 flight status page for this flight to view local times or setup timezone preferences in your user account.

Time Position Orientation Groundspeed Altitude Reporting Facility
EDT Latitude Longitude Course Direction KTS MPH feet Rate Location/Type
09:39PM 39.8500 -104.7667 346° North 202 232 6,900  Level Denver TRACON
09:40PM 39.8833 -104.8333 303° West 246 283 8,600 1,500 Climbing Denver TRACON
09:41PM 39.9500 -104.8500 349° North 299 344 9,800 1,440 Climbing Denver TRACON
09:42PM 40.0333 -104.8500 360° North 318 366 11,400 1,200 Climbing Denver TRACON
09:43PM 40.1333 -104.8500 360° North 353 406 12,300 1,260 Climbing Denver TRACON
09:44PM 40.4815 -104.8716 346° North  Level FlightAware Approximate
09:44PM 40.2167 -104.8500 360° North 367 422 13,800  Level Denver TRACON
09:44PM 40.3000 -104.8500 360° North 373 429 14,900 1,560 Climbing Denver TRACON
09:45PM 40.4167 -104.8500 360° North 360 414 16,800 1,140 Climbing Denver TRACON
09:47PM 40.5422 -104.8483 North 366 421 17,700 900 Climbing Salt Lake Center
09:48PM 40.6433 -104.8506 359° North 374 430 19,000 960 Climbing Salt Lake Center
09:49PM 40.7506 -104.8506 360° North 369 425 19,700 780 Climbing Denver Center
09:50PM 40.8550 -104.8842 346° North 386 444 20,600 780 Climbing Denver Center
09:51PM 40.9575 -104.9325 340° North 392 451 21,300 780 Climbing Denver Center
09:52PM 41.0758 -104.9917 339° North 393 452 22,300 780 Climbing Denver Center
09:53PM 41.1758 -105.0425 339° North 397 457 23,000 600 Climbing Denver Center
09:54PM 41.2781 -105.0925 340° North 405 466 23,600 660 Climbing Denver Center
09:55PM 41.3950 -105.1492 340° North 402 463 24,400 600 Climbing Denver Center
09:56PM 41.4958 -105.2022 338° Northwest 404 465 24,900 480 Climbing Denver Center
09:57PM 41.6078 -105.2789 333° Northwest 411 473 25,400 540 Climbing Denver Center
09:58PM 41.6886 -105.3725 319° Northwest 401 461 26,100 540 Climbing Denver Center
09:59PM 41.7708 -105.4636 320° Northwest 400 460 26,600 540 Climbing Denver Center
10:00PM 41.8661 -105.5728 320° Northwest 401 461 27,200 480 Climbing Denver Center
10:01PM 41.9506 -105.6675 320° Northwest 407 468 27,700 360 Climbing Denver Center
10:02PM 42.0319 -105.7639 319° Northwest 406 467 28,000 120 Climbing Denver Center
10:03PM 42.1281 -105.8778 319° Northwest 410 472 28,000  Level Denver Center
10:04PM 42.2133 -105.9786 319° Northwest 422 486 28,000  Level Denver Center
10:05PM 42.2992 -106.0783 319° Northwest 425 489 28,000  Level Denver Center
10:06PM 42.4008 -106.1989 319° Northwest 432 497 28,000  Level Denver Center
10:07PM 42.4897 -106.3025 319° Northwest 437 503 28,000  Level Denver Center
10:08PM 42.5769 -106.4078 318° Northwest 438 504 28,000  Level Denver Center
10:09PM 42.6789 -106.5297 319° Northwest 437 503 28,000  Level Denver Center
10:10PM 42.7661 -106.6342 319° Northwest 436 502 28,000  Level Denver Center
10:11PM 42.8697 -106.7567 319° Northwest 439 505 28,000  Level Denver Center
10:12PM 42.9558 -106.8619 318° Northwest 437 503 28,000  Level Denver Center
10:13PM 43.0433 -106.9689 318° Northwest 439 505 28,000  Level Denver Center
10:14PM 43.1356 -107.0839 318° Northwest 439 505 28,000  Level Salt Lake Center
10:15PM 43.2275 -107.1956 319° Northwest 442 509 28,000  Level Salt Lake Center
10:16PM 43.3194 -107.3086 318° Northwest 443 510 28,000  Level Salt Lake Center
10:17PM 43.4103 -107.4242 317° Northwest 445 512 28,000  Level Salt Lake Center
10:18PM 43.5025 -107.5372 318° Northwest 445 512 28,000  Level Salt Lake Center
10:19PM 43.5939 -107.6519 318° Northwest 445 512 28,000 -300 Level Salt Lake Center
10:20PM 43.6853 -107.7656 318° Northwest 444 511 27,500 -1,380 Descending Salt Lake Center
10:21PM 43.7767 -107.8817 317° Northwest 445 512 25,200 -2,220 Descending Salt Lake Center
10:22PM 43.8672 -107.9953 318° Northwest 440 506 23,000 -2,220 Descending Salt Lake Center
10:23PM 43.9547 -108.1069 317° Northwest 430 495 20,800 -2,520 Descending Salt Lake Center
10:24PM 44.0294 -108.2275 311° West 418 481 17,900 -3,180 Descending Salt Lake Center
10:25PM 44.1164 -108.3697 310° West 409 471 14,400 -2,940 Descending Salt Lake Center
10:26PM 44.1886 -108.4844 311° West 402 463 12,000 -1,200 Descending Salt Lake Center
10:27PM 44.2575 -108.5956 311° West 393 452 12,000 -60 Level Salt Lake Center
10:28PM 44.3286 -108.7011 313° West 382 440 11,900 -780 Descending Salt Lake Center
10:29PM 44.4031 -108.7706 326° Northwest 351 404 10,500 -1,500 Descending Salt Lake Center
10:30PM 44.4622 -108.8072 336° Northwest 281 323 8,900 -1,260 Descending Salt Lake Center
10:31PM 44.5025 -108.8569 319° Northwest 227 261 8,000 -840 Descending Salt Lake Center
10:32PM 44.5375 -108.9103 313° West 204 235 7,300 -720 Descending Salt Lake Center